createdAt,value
2022-11-18T00:00:55.236Z,6.22
2022-11-18T00:03:22.101Z,7.63
2022-11-18T00:05:55.693Z,6.95
2022-11-18T00:08:23.024Z,7.50
2022-11-18T00:10:51.708Z,7.18
2022-11-18T00:13:37.334Z,6.68
2022-11-18T00:16:06.061Z,7.72
2022-11-18T00:18:32.798Z,7.18
2022-11-18T00:21:01.398Z,8.27
2022-11-18T00:23:31.558Z,6.82
2022-11-18T00:26:03.434Z,6.90
2022-11-18T00:28:31.459Z,7.53
2022-11-18T00:31:02.855Z,6.43
2022-11-18T00:33:29.891Z,5.78
2022-11-18T00:35:56.918Z,7.40
2022-11-18T00:38:23.645Z,8.65
2022-11-18T00:40:50.418Z,8.20
2022-11-18T00:43:18.455Z,8.25
2022-11-18T00:45:45.147Z,8.17
2022-11-18T00:48:11.817Z,7.25
2022-11-18T00:50:38.514Z,8.07
2022-11-18T00:53:05.161Z,7.53
2022-11-18T00:55:31.903Z,6.82
2022-11-18T00:57:58.655Z,7.30
2022-11-18T01:00:26.824Z,6.78
2022-11-18T01:02:53.410Z,8.85
2022-11-18T01:05:20.363Z,8.88
2022-11-18T01:07:47.014Z,8.05
2022-11-18T01:10:13.701Z,7.25
2022-11-18T01:12:58.804Z,8.00
2022-11-18T01:15:26.856Z,7.43
2022-11-18T01:17:55.035Z,7.23
2022-11-18T01:20:21.616Z,7.88
2022-11-18T01:22:48.292Z,9.60
2022-11-18T01:25:15.058Z,7.07
2022-11-18T01:27:41.695Z,6.95
2022-11-18T01:30:09.802Z,8.93
2022-11-18T01:32:38.407Z,7.57
2022-11-18T01:35:05.809Z,8.23
2022-11-18T01:37:32.511Z,7.55
2022-11-18T01:39:59.103Z,7.72
2022-11-18T01:42:26.212Z,8.05
2022-11-18T01:44:58.677Z,7.53
2022-11-18T01:47:28.752Z,6.95
2022-11-18T01:49:57.588Z,7.40
2022-11-18T01:54:57.498Z,8.73
2022-11-18T01:57:27.593Z,8.13
2022-11-18T02:00:00.379Z,6.53
2022-11-18T02:02:27.895Z,7.72
2022-11-18T02:04:57.772Z,7.65
2022-11-18T02:07:25.389Z,7.95
2022-11-18T02:09:53.381Z,7.85
2022-11-18T02:12:20.887Z,7.72
2022-11-18T02:14:48.276Z,8.32
2022-11-18T02:17:25.960Z,7.70
2022-11-18T02:20:23.128Z,7.63
2022-11-18T02:23:42.173Z,7.78
2022-11-18T02:26:45.697Z,9.60
2022-11-18T02:29:17.626Z,6.70
2022-11-18T02:31:52.369Z,7.80
2022-11-18T02:34:32.010Z,6.28
2022-11-18T02:37:04.591Z,7.68
2022-11-18T02:39:34.867Z,7.57
2022-11-18T02:42:11.729Z,7.57
2022-11-18T02:44:45.527Z,6.78
2022-11-18T02:47:15.435Z,6.55
2022-11-18T02:49:45.046Z,7.20
2022-11-18T02:52:13.888Z,6.97
2022-11-18T02:57:09.385Z,6.00
2022-11-18T02:59:36.143Z,5.93
2022-11-18T03:02:04.405Z,6.60
2022-11-18T03:04:32.609Z,8.77
2022-11-18T03:07:10.925Z,7.32
2022-11-18T03:09:40.263Z,8.20
2022-11-18T03:12:14.475Z,7.72
2022-11-18T03:14:47.382Z,6.78
2022-11-18T03:17:23.446Z,7.97
2022-11-18T03:20:03.305Z,6.00
2022-11-18T03:22:40.394Z,7.15
2022-11-18T03:25:11.650Z,7.25
2022-11-18T03:27:46.800Z,7.57
2022-11-18T03:30:16.956Z,7.65
2022-11-18T03:32:51.784Z,7.82
2022-11-18T03:35:22.794Z,6.50
2022-11-18T03:37:52.333Z,6.25
2022-11-18T03:40:29.482Z,9.15
2022-11-18T03:43:06.672Z,8.70
2022-11-18T03:45:37.572Z,6.47
2022-11-18T03:48:11.107Z,7.70
2022-11-18T03:50:43.182Z,7.82
2022-11-18T03:53:12.257Z,8.40
2022-11-18T03:55:42.078Z,7.63
2022-11-18T03:58:15.941Z,7.22
2022-11-18T04:00:46.174Z,6.57
2022-11-18T04:03:14.496Z,7.72
2022-11-18T04:05:43.498Z,7.75
2022-11-18T04:08:15.082Z,7.45
2022-11-18T04:10:47.204Z,8.10
2022-11-18T04:13:19.173Z,7.03
2022-11-18T04:15:45.907Z,7.88
2022-11-18T04:18:14.046Z,6.88
2022-11-18T04:20:41.044Z,8.00
2022-11-18T04:23:08.046Z,8.60
2022-11-18T04:25:35.027Z,9.65
2022-11-18T04:28:01.811Z,8.60
2022-11-18T04:30:28.809Z,9.30
2022-11-18T04:32:55.399Z,7.45
2022-11-18T04:35:24.036Z,7.35
2022-11-18T04:37:50.842Z,8.23
2022-11-18T04:40:17.792Z,6.90
2022-11-18T04:42:44.477Z,6.45
2022-11-18T04:45:11.127Z,7.75
2022-11-18T04:47:37.997Z,7.05
2022-11-18T04:50:05.754Z,9.95
2022-11-18T04:52:33.795Z,7.20
2022-11-18T04:55:00.434Z,7.00
2022-11-18T04:57:27.094Z,6.40
2022-11-18T04:59:53.672Z,7.20
2022-11-18T05:02:20.299Z,6.70
2022-11-18T05:04:47.071Z,7.32
2022-11-18T05:07:15.645Z,7.22
2022-11-18T05:09:43.699Z,6.43
2022-11-18T05:12:31.210Z,7.93
2022-11-18T05:14:58.375Z,6.18
2022-11-18T05:17:25.108Z,8.55
2022-11-18T05:19:51.672Z,6.50
2022-11-18T05:22:18.349Z,7.57
2022-11-18T05:24:46.357Z,8.50
2022-11-18T05:27:13.440Z,8.00
2022-11-18T05:29:40.044Z,8.85
2022-11-18T05:32:06.956Z,7.28
2022-11-18T05:34:33.610Z,7.30
2022-11-18T05:37:00.464Z,6.95
2022-11-18T05:39:27.100Z,7.80
2022-11-18T05:42:13.445Z,7.63
2022-11-18T05:44:40.100Z,8.13
2022-11-18T05:47:06.758Z,7.50
2022-11-18T05:49:33.521Z,6.68
2022-11-18T05:52:00.139Z,8.35
2022-11-18T05:54:27.644Z,7.88
2022-11-18T05:56:55.650Z,7.57
2022-11-18T05:59:22.287Z,9.33
2022-11-18T06:01:51.886Z,7.97
2022-11-18T06:04:22.650Z,8.15
2022-11-18T06:06:50.821Z,8.50
2022-11-18T06:09:20.297Z,8.48
2022-11-18T06:11:51.252Z,7.75
2022-11-18T06:14:22.851Z,7.72
2022-11-18T06:16:54.064Z,8.52
2022-11-18T06:19:20.804Z,8.75
2022-11-18T06:21:47.971Z,8.05
2022-11-18T06:24:15.447Z,6.50
2022-11-18T06:26:42.923Z,7.57
2022-11-18T06:29:13.405Z,7.07
2022-11-18T06:31:41.569Z,6.40
2022-11-18T06:34:08.499Z,7.30
2022-11-18T06:36:35.120Z,6.60
2022-11-18T06:39:05.485Z,7.80
2022-11-18T06:41:32.749Z,8.52
2022-11-18T06:43:59.716Z,6.57
2022-11-18T06:46:44.993Z,7.07
2022-11-18T06:49:13.080Z,7.32
2022-11-18T06:51:40.293Z,6.10
2022-11-18T06:54:10.638Z,6.97
2022-11-18T06:56:37.871Z,6.85
2022-11-18T06:59:04.859Z,8.38
2022-11-18T07:01:34.962Z,7.68
2022-11-18T07:04:02.497Z,8.98
2022-11-18T07:06:32.693Z,8.55
2022-11-18T07:09:00.499Z,8.73
2022-11-18T07:11:27.858Z,8.00
2022-11-18T07:13:54.647Z,8.23
2022-11-18T07:16:23.930Z,7.97
2022-11-18T07:18:52.026Z,8.30
2022-11-18T07:21:20.747Z,8.23
2022-11-18T07:23:48.811Z,7.07
2022-11-18T07:26:16.284Z,7.33
2022-11-18T07:28:43.514Z,9.05
2022-11-18T07:31:11.566Z,6.47
2022-11-18T07:33:39.748Z,7.63
2022-11-18T07:36:08.990Z,9.18
2022-11-18T07:38:35.952Z,8.68
2022-11-18T07:41:08.741Z,9.50
2022-11-18T07:43:36.354Z,9.75
2022-11-18T07:46:11.425Z,7.72
2022-11-18T07:48:38.138Z,7.80
2022-11-18T07:51:05.191Z,7.32
2022-11-18T07:53:32.700Z,7.45
2022-11-18T07:55:59.491Z,9.20
2022-11-18T07:58:30.467Z,9.90
2022-11-18T08:00:57.455Z,7.93
2022-11-18T08:03:26.637Z,8.27
2022-11-18T08:05:53.657Z,8.07
2022-11-18T08:08:22.078Z,6.85
2022-11-18T08:10:48.766Z,11.35
2022-11-18T08:13:16.025Z,8.75
2022-11-18T08:15:44.082Z,7.97
2022-11-18T08:18:13.633Z,8.93
2022-11-18T08:20:40.845Z,7.97
2022-11-18T08:23:07.424Z,7.63
2022-11-18T08:25:34.010Z,7.55
2022-11-18T08:28:00.639Z,7.82
2022-11-18T08:30:27.491Z,8.10
2022-11-18T08:32:56.606Z,8.25
2022-11-18T08:35:28.813Z,7.47
2022-11-18T08:37:55.877Z,8.25
2022-11-18T08:40:22.589Z,8.88
2022-11-18T08:42:49.279Z,10.02
2022-11-18T08:45:15.982Z,9.23
2022-11-18T08:47:42.544Z,8.55
2022-11-18T08:50:12.516Z,7.13
2022-11-18T08:52:39.175Z,7.78
2022-11-18T08:55:06.224Z,7.25
2022-11-18T08:57:32.960Z,9.35
2022-11-18T08:59:59.601Z,8.70
2022-11-18T09:02:26.583Z,9.00
2022-11-18T09:04:53.820Z,7.72
2022-11-18T09:07:22.434Z,7.55
2022-11-18T09:09:50.830Z,8.68
2022-11-18T09:12:17.675Z,10.10
2022-11-18T09:17:35.590Z,9.88
2022-11-18T09:20:02.318Z,8.30
2022-11-18T09:22:30.339Z,9.63
2022-11-18T09:24:59.609Z,9.37
2022-11-18T09:27:26.210Z,9.13
2022-11-18T09:29:52.804Z,10.50
2022-11-18T09:32:19.887Z,10.77
2022-11-18T09:34:46.571Z,9.02
2022-11-18T09:37:13.369Z,8.63
2022-11-18T09:39:41.284Z,9.52
2022-11-18T09:42:24.807Z,8.00
2022-11-18T09:45:14.058Z,7.72
2022-11-18T09:47:42.977Z,10.10
2022-11-18T09:50:41.627Z,10.25
2022-11-18T09:53:09.009Z,8.10
2022-11-18T09:55:39.580Z,7.55
2022-11-18T09:58:07.520Z,10.43
2022-11-18T10:00:34.757Z,9.13
2022-11-18T10:03:04.923Z,10.95
2022-11-18T10:05:40.474Z,10.13
2022-11-18T10:08:21.916Z,9.52
2022-11-18T10:10:57.740Z,7.82
2022-11-18T10:13:37.145Z,7.93
2022-11-18T10:16:16.729Z,10.40
2022-11-18T10:19:00.218Z,9.60
2022-11-18T10:21:41.760Z,8.20
2022-11-18T10:24:17.025Z,8.88
2022-11-18T10:26:45.904Z,10.07
2022-11-18T10:29:12.614Z,9.10
2022-11-18T10:31:59.672Z,9.10
2022-11-18T10:34:29.860Z,8.68
2022-11-18T10:37:02.169Z,9.90
2022-11-18T10:39:28.878Z,9.38
2022-11-18T10:42:01.827Z,8.55
2022-11-18T10:44:38.036Z,8.90
2022-11-18T10:47:27.018Z,8.15
2022-11-18T10:49:55.903Z,9.50
2022-11-18T10:55:24.717Z,8.65
2022-11-18T10:57:56.853Z,8.70
2022-11-18T11:00:39.098Z,9.48
2022-11-18T11:03:26.673Z,7.95
2022-11-18T11:06:23.876Z,7.85
2022-11-18T11:08:52.116Z,9.32
2022-11-18T11:11:28.754Z,9.15
2022-11-18T11:14:04.974Z,8.88
2022-11-18T11:16:36.294Z,11.43
2022-11-18T11:19:05.460Z,8.10
2022-11-18T11:21:32.223Z,11.75
2022-11-18T11:23:58.938Z,10.60
2022-11-18T11:29:34.419Z,10.30
2022-11-18T11:32:10.291Z,9.63
2022-11-18T11:34:45.518Z,9.23
2022-11-18T11:37:23.923Z,8.75
2022-11-18T11:40:05.568Z,10.15
2022-11-18T11:42:44.121Z,9.73
2022-11-18T11:45:19.877Z,9.02
2022-11-18T11:48:00.781Z,7.95
2022-11-18T11:50:33.310Z,8.48
2022-11-18T11:53:14.495Z,7.80
2022-11-18T11:55:56.597Z,9.38
2022-11-18T11:58:36.608Z,9.25
2022-11-18T12:01:18.678Z,9.52
2022-11-18T12:03:51.944Z,9.48
2022-11-18T12:06:19.502Z,9.75
2022-11-18T12:08:56.480Z,9.55
2022-11-18T12:11:31.831Z,11.20
2022-11-18T12:14:03.488Z,10.02
2022-11-18T12:16:40.221Z,10.02
2022-11-18T12:19:14.661Z,7.95
2022-11-18T12:22:00.902Z,8.65
2022-11-18T12:24:37.590Z,10.07
2022-11-18T12:27:34.696Z,10.77
2022-11-18T12:30:04.007Z,9.95
2022-11-18T12:32:42.226Z,9.30
2022-11-18T12:35:26.334Z,12.52
2022-11-18T12:38:01.915Z,9.40
2022-11-18T12:40:37.786Z,9.35
2022-11-18T12:43:24.286Z,9.90
2022-11-18T12:45:53.944Z,9.90
2022-11-18T12:48:41.816Z,10.07
2022-11-18T12:51:44.420Z,10.40
2022-11-18T12:54:30.712Z,8.52
2022-11-18T12:57:00.944Z,10.73
2022-11-18T12:59:30.289Z,9.82
2022-11-18T13:02:19.572Z,9.32
2022-11-18T13:05:04.896Z,9.82
2022-11-18T13:07:54.378Z,9.45
2022-11-18T13:10:24.254Z,8.70
2022-11-18T13:12:52.405Z,10.20
2022-11-18T13:15:37.758Z,9.68
2022-11-18T13:18:12.964Z,8.13
2022-11-18T13:20:43.113Z,8.52
2022-11-18T13:23:48.673Z,7.45
2022-11-18T13:26:19.784Z,8.23
2022-11-18T13:29:00.166Z,8.82
2022-11-18T13:31:33.227Z,7.47
2022-11-18T13:34:01.823Z,9.40
2022-11-18T13:36:32.097Z,11.65
2022-11-18T13:39:00.481Z,8.88
2022-11-18T13:41:35.101Z,8.93
2022-11-18T13:44:12.644Z,9.02
2022-11-18T13:46:41.130Z,7.25
2022-11-18T13:49:16.788Z,10.85
2022-11-18T13:51:46.022Z,9.05
2022-11-18T13:54:24.619Z,9.70
2022-11-18T13:56:52.273Z,8.93
2022-11-18T13:59:22.494Z,8.05
2022-11-18T14:01:55.168Z,11.45
2022-11-18T14:04:25.714Z,7.55
2022-11-18T14:06:53.947Z,9.00
2022-11-18T14:09:24.908Z,11.18
2022-11-18T14:12:00.444Z,9.13
2022-11-18T14:14:29.972Z,8.57
2022-11-18T14:17:23.409Z,8.00
2022-11-18T14:19:51.726Z,8.63
2022-11-18T14:22:22.051Z,8.48
2022-11-18T14:24:56.537Z,9.35
2022-11-18T14:27:38.489Z,9.07
2022-11-18T14:30:31.452Z,9.18
2022-11-18T14:33:20.494Z,7.80
2022-11-18T14:35:53.190Z,8.32
2022-11-18T14:41:13.237Z,8.32
2022-11-18T14:43:40.566Z,9.63
2022-11-18T14:46:14.158Z,9.07
2022-11-18T14:48:41.072Z,7.20
2022-11-18T14:51:12.075Z,8.40
2022-11-18T14:53:40.062Z,11.35
2022-11-18T14:56:14.876Z,8.37
2022-11-18T14:58:41.441Z,8.55
2022-11-18T15:01:10.546Z,8.80
2022-11-18T15:03:37.267Z,10.63
2022-11-18T15:06:04.341Z,12.00
2022-11-18T15:08:30.954Z,11.88
2022-11-18T15:10:58.971Z,11.70
2022-11-18T15:13:25.702Z,10.43
2022-11-18T15:15:52.283Z,8.55
2022-11-18T15:18:19.037Z,8.85
2022-11-18T15:20:45.688Z,10.02
2022-11-18T15:23:12.311Z,10.38
2022-11-18T15:25:39.069Z,13.73
2022-11-18T15:28:09.953Z,9.68
2022-11-18T15:30:36.630Z,11.23
2022-11-18T15:33:03.531Z,10.88
2022-11-18T15:35:30.105Z,11.75
2022-11-18T15:37:56.683Z,7.95
2022-11-18T15:40:23.303Z,8.57
2022-11-18T15:42:52.276Z,9.77
2022-11-18T15:45:20.796Z,10.95
2022-11-18T15:47:47.559Z,8.43
2022-11-18T15:50:14.258Z,11.25
2022-11-18T15:52:41.090Z,11.73
2022-11-18T15:55:08.944Z,14.05
2022-11-18T15:57:35.606Z,10.73
2022-11-18T16:00:05.440Z,11.80
2022-11-18T16:02:33.450Z,13.35
2022-11-18T16:05:00.104Z,12.70
2022-11-18T16:07:26.718Z,13.35
2022-11-18T16:10:11.765Z,12.65
2022-11-18T16:12:47.205Z,12.45
2022-11-18T16:15:32.725Z,12.15
2022-11-18T16:18:00.798Z,15.10
2022-11-18T16:20:28.165Z,12.73
2022-11-18T16:22:56.331Z,13.50
2022-11-18T16:25:23.699Z,13.02
2022-11-18T16:27:50.374Z,13.02
2022-11-18T16:30:41.729Z,15.52
2022-11-18T16:33:09.722Z,14.10
2022-11-18T16:35:36.618Z,12.83
2022-11-18T16:38:03.261Z,14.48
2022-11-18T16:40:29.874Z,14.48
2022-11-18T16:42:56.578Z,17.48
2022-11-18T16:45:23.264Z,15.27
2022-11-18T16:47:50.018Z,18.10
2022-11-18T16:50:19.543Z,16.60
2022-11-18T16:52:46.256Z,16.45
2022-11-18T16:55:12.882Z,16.10
2022-11-18T16:57:40.254Z,17.08
2022-11-18T17:00:08.254Z,14.77
2022-11-18T17:02:35.596Z,13.90
2022-11-18T17:05:02.190Z,15.40
2022-11-18T17:07:35.424Z,14.38
2022-11-18T17:10:05.881Z,17.00
2022-11-18T17:12:32.875Z,14.55
2022-11-18T17:14:59.433Z,13.35
2022-11-18T17:17:26.286Z,12.68
2022-11-18T17:19:52.871Z,12.57
2022-11-18T17:22:19.670Z,14.95
2022-11-18T17:24:47.669Z,14.07
2022-11-18T17:27:14.454Z,17.70
2022-11-18T17:29:41.351Z,14.65
2022-11-18T17:32:08.061Z,16.52
2022-11-18T17:34:35.038Z,17.13
2022-11-18T17:37:06.853Z,19.27
2022-11-18T17:39:33.984Z,19.55
2022-11-18T17:42:14.094Z,17.23
2022-11-18T17:44:40.899Z,19.10
2022-11-18T17:47:07.581Z,18.40
2022-11-18T17:49:34.319Z,21.65
2022-11-18T17:52:01.055Z,21.00
2022-11-18T17:54:27.700Z,22.70
2022-11-18T17:56:54.378Z,23.17
2022-11-18T17:59:24.216Z,23.67
2022-11-18T18:01:55.883Z,24.08
2022-11-18T18:04:25.531Z,23.00
2022-11-18T18:06:52.993Z,24.23
2022-11-18T18:09:21.804Z,25.50
2022-11-18T18:11:52.016Z,26.38
2022-11-18T18:14:19.328Z,26.17
2022-11-18T18:16:48.890Z,22.98
2022-11-18T18:19:17.706Z,24.42
2022-11-18T18:24:12.210Z,22.02
2022-11-18T18:26:38.870Z,24.55
2022-11-18T18:29:05.869Z,24.80
2022-11-18T18:31:36.679Z,26.17
2022-11-18T18:34:04.973Z,24.10
2022-11-18T18:36:32.139Z,22.02
2022-11-18T18:38:59.537Z,23.33
2022-11-18T18:41:26.152Z,22.98
2022-11-18T18:43:52.760Z,24.58
2022-11-18T18:46:31.021Z,22.52
2022-11-18T18:49:00.373Z,22.48
2022-11-18T18:51:30.985Z,22.58
2022-11-18T18:53:59.120Z,22.95
2022-11-18T18:56:26.610Z,24.48
2022-11-18T18:58:53.678Z,24.23
2022-11-18T19:01:20.908Z,22.27
2022-11-18T19:03:48.300Z,24.15
2022-11-18T19:06:48.682Z,24.83
2022-11-18T19:09:08.662Z,26.60
2022-11-18T19:11:54.873Z,22.95
2022-11-18T19:14:21.979Z,21.95
2022-11-18T19:16:49.112Z,25.63
2022-11-18T19:19:17.794Z,22.45
2022-11-18T19:21:47.620Z,25.30
2022-11-18T19:24:42.371Z,25.52
2022-11-18T19:27:02.471Z,24.23
2022-11-18T19:29:29.230Z,26.17
2022-11-18T19:31:55.851Z,23.08
2022-11-18T19:34:22.761Z,23.45
2022-11-18T19:36:50.983Z,26.20
2022-11-18T19:39:19.275Z,27.15
2022-11-18T19:41:46.220Z,27.15
2022-11-18T19:44:12.888Z,27.13
2022-11-18T19:46:39.656Z,28.63
2022-11-18T19:49:06.238Z,24.02
2022-11-18T19:51:34.502Z,23.92
2022-11-18T19:54:01.089Z,25.63
2022-11-18T19:56:29.428Z,24.60
2022-11-18T19:58:56.067Z,25.05
2022-11-18T20:01:25.534Z,25.50
2022-11-18T20:03:53.503Z,22.23
2022-11-18T20:06:21.587Z,23.77
2022-11-18T20:08:48.724Z,24.63
2022-11-18T20:11:17.389Z,19.67
2022-11-18T20:13:47.006Z,20.05
2022-11-18T20:16:22.479Z,21.45
2022-11-18T20:18:53.369Z,20.92
2022-11-18T20:21:21.831Z,20.70
2022-11-18T20:23:49.601Z,20.33
2022-11-18T20:26:18.519Z,21.77
2022-11-18T20:28:48.203Z,21.55
2022-11-18T20:31:17.927Z,20.02
2022-11-18T20:33:49.634Z,21.60
2022-11-18T20:36:18.585Z,19.25
2022-11-18T20:41:14.850Z,17.48
2022-11-18T20:43:45.062Z,19.52
2022-11-18T20:46:17.344Z,19.10
2022-11-18T20:48:49.652Z,17.33
2022-11-18T20:51:18.119Z,18.65
2022-11-18T20:53:45.326Z,21.33
2022-11-18T20:56:14.421Z,18.75
2022-11-18T20:58:48.149Z,19.70
2022-11-18T21:01:18.384Z,20.33
2022-11-18T21:03:49.341Z,21.73
2022-11-18T21:06:15.978Z,21.75
2022-11-18T21:08:43.385Z,22.48
2022-11-18T21:11:11.960Z,20.88
2022-11-18T21:14:04.748Z,21.52
2022-11-18T21:16:33.237Z,20.58
2022-11-18T21:19:02.169Z,19.70
2022-11-18T21:24:18.166Z,18.45
2022-11-18T21:29:17.758Z,19.00
2022-11-18T21:31:52.687Z,18.65
2022-11-18T21:34:20.020Z,22.70
2022-11-18T21:36:51.653Z,21.33
2022-11-18T21:39:21.538Z,21.45
2022-11-18T21:41:55.605Z,23.13
2022-11-18T21:44:23.643Z,23.50
2022-11-18T21:46:52.023Z,21.35
2022-11-18T21:49:19.401Z,23.50
2022-11-18T21:51:46.309Z,24.70
2022-11-18T21:54:15.765Z,23.98
2022-11-18T21:56:42.885Z,23.38
2022-11-18T21:59:09.528Z,23.67
2022-11-18T22:01:36.210Z,23.98
2022-11-18T22:04:05.823Z,23.85
2022-11-18T22:06:34.361Z,22.80
2022-11-18T22:09:02.108Z,24.73
2022-11-18T22:11:31.976Z,25.38
2022-11-18T22:13:59.773Z,24.73
2022-11-18T22:16:27.362Z,24.13
2022-11-18T22:18:59.249Z,26.33
2022-11-18T22:21:30.733Z,28.08
2022-11-18T22:23:58.583Z,28.35
2022-11-18T22:26:25.506Z,26.02
2022-11-18T22:28:53.622Z,27.80
2022-11-18T22:31:21.772Z,26.97
2022-11-18T22:33:51.021Z,21.07
2022-11-18T22:36:20.066Z,25.15
2022-11-18T22:38:48.842Z,27.17
2022-11-18T22:41:36.904Z,27.30
2022-11-18T22:44:07.755Z,30.00
2022-11-18T22:46:35.054Z,27.67
2022-11-18T22:49:02.034Z,26.23
2022-11-18T22:51:29.400Z,25.83
2022-11-18T22:54:22.962Z,29.23
2022-11-18T22:56:44.241Z,28.43
2022-11-18T22:59:12.327Z,28.35
2022-11-18T23:01:39.705Z,27.60
2022-11-18T23:04:06.879Z,25.27
2022-11-18T23:06:33.782Z,22.52
2022-11-18T23:09:02.699Z,22.52
2022-11-18T23:11:49.225Z,25.80
2022-11-18T23:14:16.133Z,23.40
2022-11-18T23:16:43.143Z,22.73
2022-11-18T23:19:13.026Z,22.38
2022-11-18T23:21:40.431Z,24.45
2022-11-18T23:24:13.188Z,21.75
2022-11-18T23:26:39.954Z,23.17
2022-11-18T23:29:06.714Z,21.52
2022-11-18T23:31:35.852Z,21.15
2022-11-18T23:34:02.712Z,20.08
2022-11-18T23:36:29.603Z,20.85
2022-11-18T23:38:56.356Z,21.70
2022-11-18T23:41:24.712Z,21.98
2022-11-18T23:43:52.161Z,21.85
2022-11-18T23:46:19.247Z,22.80
2022-11-18T23:48:46.537Z,21.58
2022-11-18T23:51:15.495Z,19.10
2022-11-18T23:53:43.058Z,20.42
2022-11-18T23:56:12.167Z,21.38
